createdAt,value
2018-06-25T00:00:58.686Z,8.50
2018-06-25T00:01:58.713Z,7.30
2018-06-25T00:02:58.716Z,8.20
2018-06-25T00:03:58.687Z,9.00
2018-06-25T00:04:58.679Z,8.00
2018-06-25T00:05:58.700Z,9.00
2018-06-25T00:06:58.690Z,8.70
2018-06-25T00:07:58.719Z,8.60
2018-06-25T00:08:58.710Z,8.70
2018-06-25T00:09:58.705Z,9.10
2018-06-25T00:10:58.690Z,8.70
2018-06-25T00:11:58.706Z,8.70
2018-06-25T00:12:58.680Z,8.80
2018-06-25T00:13:58.722Z,9.30
2018-06-25T00:14:58.913Z,9.50
2018-06-25T00:15:58.715Z,9.10
2018-06-25T00:16:58.677Z,9.20
2018-06-25T00:17:58.716Z,8.60
2018-06-25T00:18:58.693Z,9.30
2018-06-25T00:19:58.725Z,8.40
2018-06-25T00:20:58.739Z,10.80
2018-06-25T00:21:58.738Z,10.80
2018-06-25T00:22:58.760Z,9.90
2018-06-25T00:23:59.985Z,8.80
2018-06-25T00:24:58.738Z,9.00
2018-06-25T00:25:58.705Z,8.20
2018-06-25T00:26:58.710Z,7.90
2018-06-25T00:27:58.719Z,7.40
2018-06-25T00:28:58.730Z,9.00
2018-06-25T00:29:58.685Z,8.60
2018-06-25T00:30:58.754Z,8.90
2018-06-25T00:31:58.725Z,7.40
2018-06-25T00:32:58.721Z,8.40
2018-06-25T00:33:58.714Z,9.00
2018-06-25T00:34:58.687Z,7.50
2018-06-25T00:35:58.693Z,8.10
2018-06-25T00:36:58.706Z,8.10
2018-06-25T00:37:58.764Z,7.60
2018-06-25T00:38:58.754Z,9.20
2018-06-25T00:39:58.736Z,8.00
2018-06-25T00:40:58.718Z,8.20
2018-06-25T00:41:58.760Z,7.70
2018-06-25T00:42:58.823Z,7.40
2018-06-25T00:43:58.754Z,10.30
2018-06-25T00:44:58.737Z,10.00
2018-06-25T00:45:58.723Z,7.60
2018-06-25T00:46:58.831Z,7.60
2018-06-25T00:47:58.762Z,9.20
2018-06-25T00:48:58.728Z,9.10
2018-06-25T00:49:58.754Z,7.60
2018-06-25T00:50:58.842Z,8.60
2018-06-25T00:51:58.761Z,8.30
2018-06-25T00:52:58.749Z,6.90
2018-06-25T00:53:58.772Z,8.40
2018-06-25T00:54:58.762Z,9.50
2018-06-25T00:55:58.739Z,9.20
2018-06-25T00:56:58.733Z,9.10
2018-06-25T00:57:58.737Z,8.60
2018-06-25T00:58:58.764Z,10.50
2018-06-25T00:59:58.749Z,8.60
2018-06-25T01:00:58.765Z,9.00
2018-06-25T01:01:58.761Z,9.40
2018-06-25T01:02:58.783Z,9.50
2018-06-25T01:03:58.736Z,7.80
2018-06-25T01:04:58.756Z,8.60
2018-06-25T01:05:58.815Z,9.30
2018-06-25T01:06:58.780Z,8.70
2018-06-25T01:07:58.763Z,8.20
2018-06-25T01:08:58.781Z,10.80
2018-06-25T01:09:58.810Z,10.40
2018-06-25T01:10:58.803Z,9.30
2018-06-25T01:11:58.761Z,8.90
2018-06-25T01:12:58.780Z,9.50
2018-06-25T01:13:58.785Z,12.10
2018-06-25T01:14:58.763Z,8.80
2018-06-25T01:15:58.776Z,9.90
2018-06-25T01:16:58.785Z,9.70
2018-06-25T01:17:58.801Z,9.90
2018-06-25T01:18:58.816Z,10.40
2018-06-25T01:19:58.908Z,10.00
2018-06-25T01:20:58.780Z,10.30
2018-06-25T01:21:58.774Z,9.20
2018-06-25T01:22:58.800Z,9.50
2018-06-25T01:23:58.839Z,11.20
2018-06-25T01:24:58.770Z,9.50
2018-06-25T01:25:58.811Z,10.70
2018-06-25T01:26:58.775Z,11.80
2018-06-25T01:27:58.810Z,8.80
2018-06-25T01:28:58.819Z,9.50
2018-06-25T01:29:58.891Z,11.60
2018-06-25T01:30:58.810Z,11.60
2018-06-25T01:31:58.851Z,11.80
2018-06-25T01:32:58.841Z,10.60
2018-06-25T01:33:58.843Z,11.70
2018-06-25T01:34:58.872Z,11.30
2018-06-25T01:35:58.852Z,12.40
2018-06-25T01:36:58.825Z,12.60
2018-06-25T01:37:58.797Z,11.70
2018-06-25T01:38:58.832Z,12.40
2018-06-25T01:39:58.837Z,11.30
2018-06-25T01:40:58.864Z,13.00
2018-06-25T01:41:58.853Z,11.50
2018-06-25T01:42:58.817Z,12.40
2018-06-25T01:43:58.903Z,12.50
2018-06-25T01:44:58.801Z,11.70
2018-06-25T01:45:58.856Z,13.60
2018-06-25T01:46:58.859Z,10.80
2018-06-25T01:47:58.835Z,13.90
2018-06-25T01:48:58.856Z,13.80
2018-06-25T01:49:58.841Z,14.60
2018-06-25T01:50:59.404Z,13.30
2018-06-25T01:51:58.875Z,12.80
2018-06-25T01:52:58.836Z,14.30
2018-06-25T01:53:58.848Z,16.00
2018-06-25T01:54:58.830Z,16.90
2018-06-25T01:55:58.843Z,15.60
2018-06-25T01:56:58.892Z,13.90
2018-06-25T01:57:58.839Z,17.00
2018-06-25T01:58:58.833Z,14.80
2018-06-25T01:59:58.887Z,16.20
2018-06-25T02:00:58.925Z,14.80
2018-06-25T02:01:58.855Z,14.80
2018-06-25T02:02:58.890Z,15.00
2018-06-25T02:03:58.862Z,16.40
2018-06-25T02:04:58.892Z,13.60
2018-06-25T02:05:58.841Z,16.50
2018-06-25T02:06:58.905Z,15.60
2018-06-25T02:07:58.874Z,15.90
2018-06-25T02:08:58.878Z,15.80
2018-06-25T02:09:58.905Z,15.30
2018-06-25T02:10:58.868Z,14.80
2018-06-25T02:11:58.906Z,16.90
2018-06-25T02:12:58.891Z,15.90
2018-06-25T02:13:58.883Z,17.10
2018-06-25T02:14:58.896Z,14.80
2018-06-25T02:15:58.894Z,14.90
2018-06-25T02:16:58.862Z,18.20
2018-06-25T02:17:58.894Z,17.60
2018-06-25T02:18:58.939Z,15.40
2018-06-25T02:19:58.864Z,16.70
2018-06-25T02:20:58.898Z,17.20
2018-06-25T02:21:58.954Z,16.50
2018-06-25T02:22:58.904Z,15.60
2018-06-25T02:23:58.880Z,15.20
2018-06-25T02:24:58.894Z,16.00
2018-06-25T02:25:58.871Z,17.10
2018-06-25T02:26:58.928Z,19.70
2018-06-25T02:27:58.899Z,14.50
2018-06-25T02:28:58.916Z,17.00
2018-06-25T02:29:58.919Z,16.70
2018-06-25T02:30:58.910Z,16.00
2018-06-25T02:31:58.936Z,19.70
2018-06-25T02:32:58.898Z,19.60
2018-06-25T02:33:58.884Z,16.40
2018-06-25T02:34:58.888Z,17.20
2018-06-25T02:35:58.918Z,19.10
2018-06-25T02:36:58.904Z,20.40
2018-06-25T02:37:58.917Z,19.30
2018-06-25T02:38:58.959Z,19.40
2018-06-25T02:39:58.900Z,19.00
2018-06-25T02:40:58.922Z,17.20
2018-06-25T02:41:58.938Z,16.90
2018-06-25T02:42:59.022Z,16.30
2018-06-25T02:43:58.928Z,19.30
2018-06-25T02:44:58.993Z,21.10
2018-06-25T02:45:59.003Z,19.10
2018-06-25T02:46:58.929Z,19.10
2018-06-25T02:47:58.981Z,20.30
2018-06-25T02:48:58.926Z,18.20
2018-06-25T02:49:58.930Z,18.50
2018-06-25T02:50:58.952Z,19.80
2018-06-25T02:51:58.923Z,19.30
2018-06-25T02:52:58.911Z,20.00
2018-06-25T02:53:58.928Z,19.20
2018-06-25T02:54:58.926Z,18.20
2018-06-25T02:55:58.953Z,19.10
2018-06-25T02:56:58.938Z,24.50
2018-06-25T02:57:58.960Z,17.70
2018-06-25T02:58:58.929Z,19.10
2018-06-25T02:59:58.946Z,18.90
2018-06-25T03:00:58.928Z,18.40
2018-06-25T03:01:58.919Z,21.30
2018-06-25T03:02:58.937Z,21.80
2018-06-25T03:03:58.992Z,19.60
2018-06-25T03:04:58.957Z,22.60
2018-06-25T03:05:58.953Z,19.70
2018-06-25T03:06:58.962Z,21.90
2018-06-25T03:07:58.977Z,23.30
2018-06-25T03:08:58.936Z,21.80
2018-06-25T03:09:58.969Z,20.60
2018-06-25T03:10:58.983Z,22.30
2018-06-25T03:11:58.983Z,19.80
2018-06-25T03:12:58.988Z,23.70
2018-06-25T03:13:58.996Z,20.50
2018-06-25T03:14:58.980Z,19.80
2018-06-25T03:15:58.951Z,19.70
2018-06-25T03:16:59.023Z,23.50
2018-06-25T03:17:59.044Z,22.60
2018-06-25T03:18:58.954Z,21.00
2018-06-25T03:19:59.109Z,20.00
2018-06-25T03:20:59.336Z,18.10
2018-06-25T03:21:59.014Z,19.40
2018-06-25T03:22:59.007Z,21.30
2018-06-25T03:23:58.984Z,20.30
2018-06-25T03:24:58.994Z,20.70
2018-06-25T03:25:59.002Z,21.50
2018-06-25T03:26:58.964Z,21.10
2018-06-25T03:27:59.032Z,21.80
2018-06-25T03:28:58.994Z,20.20
2018-06-25T03:29:58.975Z,21.30
2018-06-25T03:30:59.020Z,21.10
2018-06-25T03:31:58.981Z,20.80
2018-06-25T03:32:58.985Z,23.80
2018-06-25T03:33:58.983Z,19.10
2018-06-25T03:34:58.989Z,21.40
2018-06-25T03:35:59.047Z,22.30
2018-06-25T03:36:59.007Z,23.60
2018-06-25T03:37:59.055Z,20.80
2018-06-25T03:38:58.984Z,20.20
2018-06-25T03:39:59.008Z,22.00
2018-06-25T03:40:59.033Z,21.30
2018-06-25T03:41:59.030Z,23.60
2018-06-25T03:42:59.039Z,22.20
2018-06-25T03:43:59.026Z,23.90
2018-06-25T03:44:59.028Z,23.00
2018-06-25T03:45:59.090Z,22.00
2018-06-25T03:46:59.027Z,22.30
2018-06-25T03:47:59.011Z,23.00
2018-06-25T03:48:59.018Z,20.60
2018-06-25T03:49:58.999Z,21.00
2018-06-25T03:50:59.013Z,21.30
2018-06-25T03:51:59.015Z,23.60
2018-06-25T03:52:59.007Z,23.80
2018-06-25T03:53:59.925Z,23.50
2018-06-25T03:54:59.050Z,22.10
2018-06-25T03:55:59.059Z,20.70
2018-06-25T03:56:59.060Z,21.70
2018-06-25T03:57:59.034Z,22.70
2018-06-25T03:58:59.928Z,24.80
2018-06-25T03:59:59.065Z,23.30
2018-06-25T04:00:59.123Z,23.60
2018-06-25T04:01:59.087Z,23.50
2018-06-25T04:02:59.044Z,22.50
2018-06-25T04:03:59.026Z,21.50
2018-06-25T04:04:59.095Z,25.00
2018-06-25T04:05:59.061Z,26.60
2018-06-25T04:06:59.072Z,22.60
2018-06-25T04:07:59.095Z,23.40
2018-06-25T04:08:59.078Z,27.10
2018-06-25T04:09:59.061Z,25.50
2018-06-25T04:10:59.094Z,25.10
2018-06-25T04:11:59.067Z,25.80
2018-06-25T04:13:00.015Z,25.50
2018-06-25T04:13:59.057Z,26.10
2018-06-25T04:14:59.083Z,23.70
2018-06-25T04:15:59.076Z,22.90
2018-06-25T04:16:59.128Z,23.80
2018-06-25T04:17:59.086Z,23.00
2018-06-25T04:18:59.108Z,21.30
2018-06-25T04:19:59.083Z,23.40
2018-06-25T04:20:59.087Z,24.80
2018-06-25T04:21:59.099Z,24.00
2018-06-25T04:22:59.109Z,24.20
2018-06-25T04:23:59.112Z,27.60
2018-06-25T04:24:59.141Z,24.60
2018-06-25T04:25:59.130Z,28.40
2018-06-25T04:26:59.092Z,25.60
2018-06-25T04:27:59.066Z,24.10
2018-06-25T04:28:59.129Z,24.80
2018-06-25T04:29:59.091Z,26.00
2018-06-25T04:30:59.107Z,25.40
2018-06-25T04:31:59.147Z,25.30
2018-06-25T04:32:59.096Z,27.10
2018-06-25T04:33:59.125Z,26.90
2018-06-25T04:34:59.103Z,26.20
2018-06-25T04:35:59.201Z,26.00
2018-06-25T04:36:59.117Z,24.00
2018-06-25T04:37:59.100Z,23.50
2018-06-25T04:38:59.126Z,28.80
2018-06-25T04:39:59.132Z,26.50
2018-06-25T04:40:59.132Z,26.30
2018-06-25T04:41:59.257Z,28.50
2018-06-25T04:43:00.046Z,26.90
2018-06-25T04:43:59.137Z,27.00
2018-06-25T04:44:59.099Z,27.70
2018-06-25T04:45:59.105Z,29.80
2018-06-25T04:46:59.095Z,27.30
2018-06-25T04:47:59.105Z,28.40
2018-06-25T04:48:59.115Z,28.40
2018-06-25T04:49:59.098Z,25.60
2018-06-25T04:50:59.949Z,30.00
2018-06-25T04:51:59.153Z,26.10
2018-06-25T04:52:59.129Z,27.30
2018-06-25T04:53:59.138Z,27.20
2018-06-25T04:54:59.153Z,27.30
2018-06-25T04:55:59.120Z,26.40
2018-06-25T04:56:59.146Z,24.60
2018-06-25T04:57:59.145Z,28.50
2018-06-25T04:58:59.109Z,26.60
2018-06-25T04:59:59.147Z,26.70
2018-06-25T05:00:59.162Z,25.70
2018-06-25T05:01:59.171Z,31.00
2018-06-25T05:02:59.954Z,26.90
2018-06-25T05:03:59.133Z,28.20
2018-06-25T05:04:59.954Z,27.40
2018-06-25T05:05:59.129Z,32.70
2018-06-25T05:06:59.128Z,31.10
2018-06-25T05:07:59.159Z,27.40
2018-06-25T05:08:59.129Z,26.30
2018-06-25T05:09:59.214Z,28.00
2018-06-25T05:10:59.188Z,28.10
2018-06-25T05:11:59.140Z,28.90
2018-06-25T05:12:59.208Z,28.40
2018-06-25T05:13:59.198Z,27.10
2018-06-25T05:14:59.131Z,28.70
2018-06-25T05:15:59.203Z,25.80
2018-06-25T05:16:59.180Z,29.80
2018-06-25T05:17:59.194Z,28.30
2018-06-25T05:18:59.180Z,25.20
2018-06-25T05:19:59.196Z,26.00
2018-06-25T05:20:59.196Z,26.80
2018-06-25T05:21:59.186Z,26.50
2018-06-25T05:22:59.190Z,28.60
2018-06-25T05:23:59.212Z,29.80
2018-06-25T05:24:59.232Z,31.70
2018-06-25T05:25:59.156Z,28.50
2018-06-25T05:26:59.191Z,28.40
2018-06-25T05:27:59.196Z,29.20
2018-06-25T05:28:59.200Z,29.60
2018-06-25T05:29:59.226Z,26.80
2018-06-25T05:30:59.160Z,29.30
2018-06-25T05:31:59.185Z,29.30
2018-06-25T05:32:59.204Z,28.60
2018-06-25T05:33:59.216Z,27.10
2018-06-25T05:34:59.170Z,27.10
2018-06-25T05:35:59.317Z,29.20
2018-06-25T05:36:59.208Z,27.30
2018-06-25T05:37:59.216Z,30.00
2018-06-25T05:38:59.195Z,26.50
2018-06-25T05:39:59.957Z,27.80
2018-06-25T05:40:59.234Z,25.10
2018-06-25T05:41:59.187Z,25.50
2018-06-25T05:42:59.200Z,24.10
2018-06-25T05:43:59.208Z,26.30
2018-06-25T05:44:59.281Z,28.40
2018-06-25T05:45:59.268Z,27.20
2018-06-25T05:46:59.233Z,24.60
2018-06-25T05:47:59.288Z,27.20
2018-06-25T05:48:59.297Z,25.40
2018-06-25T05:49:59.238Z,26.70
2018-06-25T05:50:59.224Z,27.90
2018-06-25T05:51:59.192Z,25.30
2018-06-25T05:52:59.250Z,29.00
2018-06-25T05:53:59.232Z,25.70
2018-06-25T05:54:59.202Z,24.00
2018-06-25T05:55:59.298Z,24.20
2018-06-25T05:56:59.258Z,28.70
2018-06-25T05:57:59.249Z,28.70
2018-06-25T05:58:59.304Z,25.30
2018-06-25T05:59:59.224Z,26.00
2018-06-25T06:00:59.235Z,27.50
2018-06-25T06:01:59.222Z,26.30
2018-06-25T06:02:59.259Z,24.00
2018-06-25T06:03:59.226Z,24.50
2018-06-25T06:04:59.293Z,23.10
2018-06-25T06:05:59.264Z,22.80
2018-06-25T06:06:59.972Z,21.80
2018-06-25T06:07:59.301Z,20.90
2018-06-25T06:08:59.315Z,24.60
2018-06-25T06:09:59.263Z,21.40
2018-06-25T06:10:59.300Z,17.90
2018-06-25T06:11:59.300Z,23.00
2018-06-25T06:12:59.364Z,21.10
2018-06-25T06:13:59.321Z,21.20
2018-06-25T06:14:59.305Z,20.70
2018-06-25T06:15:59.271Z,19.10
2018-06-25T06:16:59.275Z,19.30
2018-06-25T06:17:59.302Z,22.70
2018-06-25T06:18:59.262Z,18.10
2018-06-25T06:19:59.270Z,20.10
2018-06-25T06:20:59.255Z,23.10
2018-06-25T06:21:59.295Z,19.00
2018-06-25T06:22:59.275Z,19.40
2018-06-25T06:23:59.269Z,21.90
2018-06-25T06:24:59.306Z,23.20
2018-06-25T06:25:59.414Z,22.30
2018-06-25T06:26:59.276Z,23.50
2018-06-25T06:27:59.326Z,20.30
2018-06-25T06:28:59.284Z,22.40
2018-06-25T06:29:59.264Z,24.00
2018-06-25T06:30:59.277Z,19.50
2018-06-25T06:31:59.403Z,20.60
2018-06-25T06:32:59.330Z,20.80
2018-06-25T06:33:59.303Z,20.80
2018-06-25T06:34:59.295Z,16.90
2018-06-25T06:35:59.285Z,18.30
2018-06-25T06:36:59.317Z,18.40
2018-06-25T06:37:59.981Z,20.10
2018-06-25T06:38:59.314Z,16.60
2018-06-25T06:39:59.449Z,20.80
2018-06-25T06:40:59.313Z,17.10
2018-06-25T06:41:59.301Z,18.60
2018-06-25T06:42:59.309Z,21.30
2018-06-25T06:43:59.411Z,21.80
2018-06-25T06:44:59.356Z,18.40
2018-06-25T06:45:59.321Z,18.20
2018-06-25T06:46:59.339Z,19.30
2018-06-25T06:47:59.365Z,17.30
2018-06-25T06:48:59.340Z,22.30
2018-06-25T06:49:59.308Z,20.60
2018-06-25T06:50:59.305Z,22.60
2018-06-25T06:51:59.388Z,21.50
2018-06-25T06:53:01.382Z,20.60
2018-06-25T06:54:20.621Z,21.40
2018-06-25T06:54:59.377Z,21.90
2018-06-25T06:56:00.113Z,20.80
2018-06-25T06:56:59.349Z,19.60
2018-06-25T06:57:59.339Z,16.80
2018-06-25T06:58:59.331Z,19.40
2018-06-25T06:59:59.407Z,20.00
2018-06-25T07:00:59.416Z,19.60
2018-06-25T07:01:59.355Z,20.60
2018-06-25T07:02:59.415Z,17.90
2018-06-25T07:03:59.382Z,20.50
2018-06-25T07:04:59.365Z,18.90
2018-06-25T07:05:59.418Z,18.70
2018-06-25T07:06:59.403Z,17.80
2018-06-25T07:07:59.344Z,15.40
2018-06-25T07:08:59.331Z,15.70
2018-06-25T07:09:59.336Z,13.90
2018-06-25T07:10:59.434Z,14.50
2018-06-25T07:11:59.421Z,16.60
2018-06-25T07:12:59.500Z,15.50
2018-06-25T07:13:59.413Z,13.80
2018-06-25T07:14:59.461Z,15.90
2018-06-25T07:15:59.464Z,15.00
2018-06-25T07:16:59.389Z,18.00
2018-06-25T07:18:00.530Z,14.60
2018-06-25T07:18:59.408Z,16.10
2018-06-25T07:19:59.395Z,15.50
2018-06-25T07:20:59.407Z,15.40
2018-06-25T07:21:59.405Z,14.30
2018-06-25T07:22:59.362Z,15.50
2018-06-25T07:23:59.392Z,14.50
2018-06-25T07:24:59.402Z,14.20
2018-06-25T07:25:59.453Z,15.00
2018-06-25T07:26:59.411Z,12.80
2018-06-25T07:27:59.445Z,13.00
2018-06-25T07:28:59.379Z,12.90
2018-06-25T07:29:59.501Z,15.50
2018-06-25T07:30:59.428Z,12.00
2018-06-25T07:31:59.569Z,12.50
2018-06-25T07:32:59.488Z,13.40
2018-06-25T07:33:59.487Z,11.80
2018-06-25T07:34:59.517Z,12.50
2018-06-25T07:36:00.021Z,12.60
2018-06-25T07:36:59.496Z,13.80
2018-06-25T07:37:59.491Z,13.80
2018-06-25T07:38:59.430Z,13.10
2018-06-25T07:39:59.553Z,11.60
2018-06-25T07:40:59.451Z,12.60
2018-06-25T07:41:59.572Z,15.50
2018-06-25T07:42:59.538Z,12.70
2018-06-25T07:43:59.535Z,12.20
2018-06-25T07:44:59.474Z,17.60
2018-06-25T07:46:00.108Z,13.20
2018-06-25T07:46:59.504Z,13.90
2018-06-25T07:48:00.011Z,12.90
2018-06-25T07:48:59.467Z,15.70
2018-06-25T07:49:59.501Z,15.20
2018-06-25T07:50:59.460Z,13.10
2018-06-25T07:51:59.514Z,14.20
2018-06-25T07:52:59.481Z,15.30
2018-06-25T07:53:59.526Z,13.20
2018-06-25T07:54:59.491Z,14.40
2018-06-25T07:55:59.444Z,13.80
2018-06-25T07:56:59.450Z,13.90
2018-06-25T07:57:59.516Z,14.00
2018-06-25T07:58:59.464Z,14.50
2018-06-25T07:59:59.471Z,15.30
2018-06-25T08:00:59.569Z,15.80
2018-06-25T08:02:00.022Z,13.90
2018-06-25T08:02:59.495Z,14.90
2018-06-25T08:03:59.676Z,14.50
2018-06-25T08:04:59.484Z,14.50
2018-06-25T08:05:59.513Z,14.30
2018-06-25T08:06:59.512Z,14.90
2018-06-25T08:07:59.524Z,13.50
2018-06-25T08:08:59.512Z,14.60
2018-06-25T08:09:59.535Z,14.30
2018-06-25T08:10:59.559Z,14.20
2018-06-25T08:12:00.523Z,16.60
2018-06-25T08:13:00.063Z,14.90
2018-06-25T08:13:59.537Z,13.20
2018-06-25T08:15:00.210Z,15.10
2018-06-25T08:15:59.683Z,13.50
2018-06-25T08:16:59.691Z,12.30
2018-06-25T08:17:59.687Z,12.80
2018-06-25T08:18:59.637Z,13.60
2018-06-25T08:19:59.547Z,13.10
2018-06-25T08:20:59.535Z,14.10
2018-06-25T08:22:00.083Z,13.20
2018-06-25T08:22:59.627Z,13.30
2018-06-25T08:23:59.664Z,13.10
2018-06-25T08:24:59.741Z,13.30
2018-06-25T08:26:02.137Z,13.20
2018-06-25T08:26:59.535Z,13.80
2018-06-25T08:27:59.563Z,13.80
2018-06-25T08:28:59.540Z,13.80
2018-06-25T08:29:59.711Z,13.80
2018-06-25T08:31:01.143Z,14.20
2018-06-25T08:32:00.621Z,16.20
2018-06-25T08:32:59.800Z,13.10
2018-06-25T08:33:59.791Z,12.50
2018-06-25T08:34:59.609Z,14.50
2018-06-25T08:35:59.761Z,12.90
2018-06-25T08:36:59.903Z,13.70
2018-06-25T08:38:00.647Z,13.00
2018-06-25T08:38:59.647Z,12.40
2018-06-25T08:39:59.737Z,14.40
2018-06-25T08:40:59.670Z,16.30
2018-06-25T08:41:59.697Z,14.20
2018-06-25T08:42:59.611Z,13.90
2018-06-25T08:44:00.792Z,13.30
2018-06-25T08:44:59.802Z,15.10
2018-06-25T08:46:00.032Z,13.00
2018-06-25T08:46:59.682Z,13.30
2018-06-25T08:47:59.666Z,14.00
2018-06-25T08:48:59.705Z,12.00
2018-06-25T08:49:59.822Z,13.40
2018-06-25T08:50:59.836Z,12.60
2018-06-25T08:51:59.729Z,12.10
2018-06-25T08:52:59.791Z,12.70
2018-06-25T08:53:59.662Z,12.50
2018-06-25T08:54:59.707Z,14.40
2018-06-25T08:56:00.296Z,13.60
2018-06-25T08:57:00.637Z,13.50
2018-06-25T08:58:00.300Z,11.50
2018-06-25T08:58:59.900Z,11.70
2018-06-25T08:59:59.782Z,10.80
2018-06-25T09:01:00.215Z,10.80
2018-06-25T09:02:00.551Z,13.30
2018-06-25T09:02:59.693Z,10.40
2018-06-25T09:03:59.732Z,13.10
2018-06-25T09:05:00.544Z,11.60
2018-06-25T09:05:59.659Z,11.50
2018-06-25T09:06:59.646Z,13.00
2018-06-25T09:07:59.649Z,10.40
2018-06-25T09:08:59.660Z,10.90
2018-06-25T09:09:59.656Z,10.50
2018-06-25T09:10:59.663Z,13.40
2018-06-25T09:12:00.543Z,10.70
2018-06-25T09:12:59.783Z,10.30
2018-06-25T09:13:59.755Z,11.30
2018-06-25T09:14:59.679Z,9.40
2018-06-25T09:15:59.670Z,9.60
2018-06-25T09:16:59.800Z,10.80
2018-06-25T09:17:59.752Z,10.70
2018-06-25T09:18:59.659Z,9.30
2018-06-25T09:19:59.670Z,9.40
2018-06-25T09:20:59.788Z,12.10
2018-06-25T09:21:59.780Z,8.30
2018-06-25T09:22:59.785Z,9.90
2018-06-25T09:23:59.691Z,8.00
2018-06-25T09:24:59.672Z,8.50
2018-06-25T09:25:59.696Z,9.00
2018-06-25T09:26:59.751Z,11.10
2018-06-25T09:27:59.763Z,9.70
2018-06-25T09:28:59.699Z,9.40
2018-06-25T09:29:59.754Z,10.00
2018-06-25T09:30:59.711Z,7.90
2018-06-25T09:31:59.822Z,10.30
2018-06-25T09:33:00.135Z,8.00
2018-06-25T09:33:59.772Z,8.70
2018-06-25T09:34:59.785Z,9.10
2018-06-25T09:35:59.820Z,8.40
2018-06-25T09:36:59.825Z,8.70
2018-06-25T09:37:59.728Z,8.60
2018-06-25T09:38:59.747Z,8.80
2018-06-25T09:39:59.765Z,7.90
2018-06-25T09:40:59.957Z,8.70
2018-06-25T09:42:00.013Z,8.40
2018-06-25T09:42:59.992Z,7.20
2018-06-25T09:44:00.759Z,5.80
2018-06-25T09:44:59.749Z,10.20
2018-06-25T09:45:59.881Z,8.70
2018-06-25T09:46:59.957Z,9.00
2018-06-25T09:48:01.560Z,9.70
2018-06-25T09:48:59.866Z,8.90
2018-06-25T09:50:00.041Z,8.70
2018-06-25T09:50:59.865Z,7.90
2018-06-25T09:52:01.002Z,7.00
2018-06-25T09:52:59.903Z,8.00
2018-06-25T09:53:59.917Z,7.40
2018-06-25T09:55:00.042Z,6.70
2018-06-25T09:55:59.876Z,6.20
2018-06-25T09:56:59.850Z,5.90
2018-06-25T09:58:00.254Z,6.30
2018-06-25T09:58:59.996Z,7.30
2018-06-25T09:59:59.841Z,7.60
2018-06-25T10:00:59.870Z,8.20
2018-06-25T10:01:59.951Z,7.20
2018-06-25T10:02:59.928Z,7.60
2018-06-25T10:03:59.921Z,6.40
2018-06-25T10:05:00.574Z,6.20
2018-06-25T10:05:59.891Z,8.30
2018-06-25T10:07:00.766Z,6.40
2018-06-25T10:08:01.977Z,8.60
2018-06-25T10:08:59.996Z,6.40
2018-06-25T10:10:00.194Z,7.20
2018-06-25T10:11:00.572Z,6.80
2018-06-25T10:11:59.981Z,7.10
2018-06-25T10:13:00.600Z,7.40
2018-06-25T10:14:00.703Z,6.60
2018-06-25T10:14:59.996Z,6.70
2018-06-25T10:15:59.949Z,7.80
2018-06-25T10:16:59.963Z,7.10
2018-06-25T10:17:59.951Z,7.50
2018-06-25T10:18:59.942Z,6.40
2018-06-25T10:19:59.950Z,6.60
2018-06-25T10:21:00.159Z,7.00
2018-06-25T10:21:59.991Z,6.20
2018-06-25T10:23:00.013Z,8.10
2018-06-25T10:23:59.971Z,6.00
2018-06-25T10:25:00.044Z,7.50
2018-06-25T10:25:59.977Z,5.50
2018-06-25T10:26:59.994Z,6.10
2018-06-25T10:28:00.094Z,8.00
2018-06-25T10:29:00.016Z,9.80
2018-06-25T10:30:00.074Z,7.30
2018-06-25T10:31:00.065Z,10.00
2018-06-25T10:32:00.014Z,7.00
2018-06-25T10:33:00.008Z,7.30
2018-06-25T10:33:59.995Z,9.50
2018-06-25T10:35:00.049Z,9.50
2018-06-25T10:36:00.040Z,8.50
2018-06-25T10:37:00.040Z,7.10
2018-06-25T10:38:01.091Z,8.80
2018-06-25T10:39:00.048Z,6.90
2018-06-25T10:40:00.038Z,6.10
2018-06-25T10:41:00.102Z,8.10
2018-06-25T10:42:00.679Z,6.20
2018-06-25T10:43:00.093Z,6.20
2018-06-25T10:44:00.164Z,6.70
2018-06-25T10:45:00.079Z,5.70
2018-06-25T10:46:00.137Z,5.40
2018-06-25T10:47:00.073Z,6.10
2018-06-25T10:48:00.118Z,5.90
2018-06-25T10:49:00.103Z,6.80
2018-06-25T10:50:00.149Z,6.50
2018-06-25T10:51:00.173Z,7.20
2018-06-25T10:52:00.187Z,4.70
2018-06-25T10:53:00.125Z,6.70
2018-06-25T10:54:00.157Z,9.00
2018-06-25T10:55:00.136Z,7.70
2018-06-25T10:56:00.152Z,5.50
2018-06-25T10:57:00.145Z,5.20
2018-06-25T10:58:00.151Z,5.40
2018-06-25T10:59:00.185Z,5.60
2018-06-25T11:00:00.380Z,6.30
2018-06-25T11:01:00.749Z,6.60
2018-06-25T11:02:00.140Z,7.50
2018-06-25T11:03:00.181Z,6.20
2018-06-25T11:04:00.226Z,6.30
2018-06-25T11:05:00.176Z,6.10
2018-06-25T11:06:00.177Z,7.80
2018-06-25T11:07:00.188Z,6.50
2018-06-25T11:08:00.217Z,6.20
2018-06-25T11:09:00.294Z,6.00
2018-06-25T11:10:00.233Z,5.50
2018-06-25T11:11:00.316Z,6.60
2018-06-25T11:12:00.249Z,8.50
2018-06-25T11:13:00.257Z,5.60
2018-06-25T11:14:00.258Z,6.60
2018-06-25T11:15:00.232Z,7.60
2018-06-25T11:16:00.257Z,8.00
2018-06-25T11:17:00.238Z,7.40
2018-06-25T11:18:00.236Z,5.80
2018-06-25T11:19:00.253Z,6.10
2018-06-25T11:20:00.255Z,6.30
2018-06-25T11:21:00.279Z,7.40
2018-06-25T11:22:00.426Z,5.40
2018-06-25T11:23:00.274Z,4.70
2018-06-25T11:24:00.298Z,5.60
2018-06-25T11:25:00.298Z,6.30
2018-06-25T11:26:00.308Z,6.70
2018-06-25T11:27:00.384Z,7.90
2018-06-25T11:28:00.339Z,5.10
2018-06-25T11:29:00.300Z,6.20
2018-06-25T11:30:00.349Z,6.10
2018-06-25T11:31:00.301Z,7.90
2018-06-25T11:32:00.411Z,7.30
2018-06-25T11:33:00.320Z,7.20
2018-06-25T11:34:00.376Z,7.90
2018-06-25T11:35:00.408Z,5.60
2018-06-25T11:36:00.423Z,6.80
2018-06-25T11:37:00.421Z,6.40
2018-06-25T11:38:00.420Z,7.50
2018-06-25T11:39:00.378Z,7.20
2018-06-25T11:40:00.373Z,5.00
2018-06-25T11:41:00.380Z,6.40
2018-06-25T11:42:00.489Z,7.40
2018-06-25T11:43:00.435Z,8.60
2018-06-25T11:44:01.153Z,8.00
2018-06-25T11:45:00.498Z,7.70
2018-06-25T11:46:01.132Z,6.70
2018-06-25T11:47:00.411Z,6.60
2018-06-25T11:48:00.469Z,6.20
2018-06-25T11:49:00.521Z,6.30
2018-06-25T11:50:00.564Z,8.50
2018-06-25T11:51:02.636Z,7.20
2018-06-25T11:52:00.497Z,16.70
2018-06-25T11:53:02.081Z,10.40
2018-06-25T11:54:00.656Z,8.10
2018-06-25T11:55:00.654Z,5.30
2018-06-25T11:56:00.578Z,4.80
2018-06-25T11:57:00.494Z,8.60
2018-06-25T11:58:00.536Z,6.60
2018-06-25T11:59:00.763Z,7.10
2018-06-25T12:00:00.596Z,6.50
2018-06-25T12:01:00.484Z,5.80
2018-06-25T12:02:00.582Z,6.50
2018-06-25T12:03:00.613Z,6.30
2018-06-25T12:04:02.133Z,7.90
2018-06-25T12:05:00.536Z,7.50
2018-06-25T12:06:00.513Z,6.00
2018-06-25T12:07:00.559Z,6.50
2018-06-25T12:08:00.584Z,5.80
2018-06-25T12:09:00.575Z,5.40
2018-06-25T12:10:00.734Z,5.80
2018-06-25T12:11:00.579Z,5.20
2018-06-25T12:12:00.557Z,5.50
2018-06-25T12:13:00.607Z,5.90
2018-06-25T12:14:00.633Z,7.00
2018-06-25T12:15:00.594Z,5.80
2018-06-25T12:16:01.233Z,5.00
2018-06-25T12:17:00.570Z,5.80
2018-06-25T12:18:00.559Z,6.30
2018-06-25T12:19:00.598Z,4.70
2018-06-25T12:20:00.688Z,4.90
2018-06-25T12:21:00.652Z,5.90
2018-06-25T12:22:00.593Z,5.40
2018-06-25T12:23:00.684Z,5.60
2018-06-25T12:24:00.704Z,5.30
2018-06-25T12:25:00.640Z,5.10
2018-06-25T12:26:01.145Z,5.50
2018-06-25T12:27:00.658Z,5.20
2018-06-25T12:28:00.852Z,6.40
2018-06-25T12:29:02.312Z,6.00
2018-06-25T12:30:00.924Z,6.20
2018-06-25T12:31:00.683Z,6.00
2018-06-25T12:32:00.656Z,6.60
2018-06-25T12:33:00.689Z,6.50
2018-06-25T12:34:00.643Z,5.60
2018-06-25T12:35:00.720Z,6.50
2018-06-25T12:36:00.674Z,5.10
2018-06-25T12:37:00.662Z,7.00
2018-06-25T12:38:00.775Z,7.90
2018-06-25T12:39:01.151Z,5.60
2018-06-25T12:40:00.674Z,9.00
2018-06-25T12:41:00.668Z,4.90
2018-06-25T12:42:00.717Z,6.10
2018-06-25T12:43:00.788Z,7.40
2018-06-25T12:44:00.707Z,4.20
2018-06-25T12:45:00.706Z,5.10
2018-06-25T12:46:00.708Z,5.70
2018-06-25T12:47:00.727Z,5.70
2018-06-25T12:48:00.758Z,5.30
2018-06-25T12:49:00.849Z,7.20
2018-06-25T12:50:01.658Z,6.60
2018-06-25T12:51:00.782Z,6.70
2018-06-25T12:52:00.759Z,8.40
2018-06-25T12:53:00.867Z,7.30
2018-06-25T12:54:00.891Z,7.40
2018-06-25T12:55:00.855Z,5.30
2018-06-25T12:56:00.825Z,6.20
2018-06-25T12:57:00.959Z,5.60
2018-06-25T12:58:00.870Z,7.30
2018-06-25T12:59:00.812Z,5.80
2018-06-25T13:00:01.094Z,6.50
2018-06-25T13:01:00.810Z,7.20
2018-06-25T13:02:01.105Z,8.70
2018-06-25T13:03:00.837Z,8.30